Decoded Metar for K2V6 ( in ) (IATA:) | Meteo·Mobile Aviation Weather
aviador You're here:

K2V6 Decoded Metar

in
Report Time2018-10-19 20:34:00
UTC Time2018-10-19 20:54:58
Flight Rules vfr VFR
Wind360° at 14 Gusting to 20 kt
Visibility9999 m
Phenomena:N/A
Clouds:N/A
Expected CloudBase > 14,800 ft AGL from Temp-Dew spread
CeilingNone
Temp19°C
Dew Point-18°C (7% RH)
AAT10.5°C
QNH1025 hPa
Raw Report
K2V6 192034Z AUTO 36014G20KT 10SM CLR 19/M18 A3026 RMK AO2=

Extra information for K2V6:More info

Social comments